sensor_id;sensor_type;location;lat;lon;timestamp;P1;durP1;ratioP1;P2;durP2;ratioP2
53409;SDS011;66590;50.734;4.246;2023-04-24T00:01:18;23.58;;;16.40;;
53409;SDS011;66590;50.734;4.246;2023-04-24T00:03:45;26.10;;;15.45;;
53409;SDS011;66590;50.734;4.246;2023-04-24T00:06:12;27.70;;;17.33;;
53409;SDS011;66590;50.734;4.246;2023-04-24T00:08:39;18.90;;;13.65;;
53409;SDS011;66590;50.734;4.246;2023-04-24T00:11:06;25.42;;;15.32;;
53409;SDS011;66590;50.734;4.246;2023-04-24T00:13:34;26.70;;;15.23;;
53409;SDS011;66590;50.734;4.246;2023-04-24T00:16:01;31.67;;;19.52;;
53409;SDS011;66590;50.734;4.246;2023-04-24T00:18:29;29.65;;;17.92;;
53409;SDS011;66590;50.734;4.246;2023-04-24T00:20:56;26.52;;;16.83;;
53409;SDS011;66590;50.734;4.246;2023-04-24T00:23:23;27.00;;;16.33;;
53409;SDS011;66590;50.734;4.246;2023-04-24T00:25:50;29.42;;;17.38;;
53409;SDS011;66590;50.734;4.246;2023-04-24T00:28:17;25.60;;;17.52;;
53409;SDS011;66590;50.734;4.246;2023-04-24T00:30:44;28.42;;;18.55;;
53409;SDS011;66590;50.734;4.246;2023-04-24T00:33:11;34.30;;;18.95;;
53409;SDS011;66590;50.734;4.246;2023-04-24T00:35:40;31.75;;;17.30;;
53409;SDS011;66590;50.734;4.246;2023-04-24T00:38:07;25.70;;;16.60;;
53409;SDS011;66590;50.734;4.246;2023-04-24T00:40:34;30.17;;;18.52;;
53409;SDS011;66590;50.734;4.246;2023-04-24T00:43:01;22.88;;;15.45;;
53409;SDS011;66590;50.734;4.246;2023-04-24T00:45:28;31.63;;;19.67;;
53409;SDS011;66590;50.734;4.246;2023-04-24T00:47:55;31.02;;;16.70;;
53409;SDS011;66590;50.734;4.246;2023-04-24T00:50:23;30.77;;;19.02;;
53409;SDS011;66590;50.734;4.246;2023-04-24T00:52:51;30.00;;;20.83;;
53409;SDS011;66590;50.734;4.246;2023-04-24T00:55:19;29.33;;;19.48;;
53409;SDS011;66590;50.734;4.246;2023-04-24T00:57:46;32.92;;;20.67;;
53409;SDS011;66590;50.734;4.246;2023-04-24T01:00:13;29.00;;;18.52;;
53409;SDS011;66590;50.734;4.246;2023-04-24T01:02:41;35.10;;;21.00;;
53409;SDS011;66590;50.734;4.246;2023-04-24T01:05:11;30.73;;;20.75;;
53409;SDS011;66590;50.734;4.246;2023-04-24T01:07:38;29.58;;;18.00;;
53409;SDS011;66590;50.734;4.246;2023-04-24T01:10:08;29.98;;;19.42;;
53409;SDS011;66590;50.734;4.246;2023-04-24T01:12:36;34.60;;;21.63;;
53409;SDS011;66590;50.734;4.246;2023-04-24T01:15:04;33.22;;;20.42;;
53409;SDS011;66590;50.734;4.246;2023-04-24T01:17:32;31.58;;;21.02;;
53409;SDS011;66590;50.734;4.246;2023-04-24T01:19:59;32.30;;;21.38;;
53409;SDS011;66590;50.734;4.246;2023-04-24T01:22:27;34.67;;;21.60;;
53409;SDS011;66590;50.734;4.246;2023-04-24T01:24:54;34.78;;;22.67;;
53409;SDS011;66590;50.734;4.246;2023-04-24T01:27:21;36.67;;;22.52;;
53409;SDS011;66590;50.734;4.246;2023-04-24T01:29:48;36.42;;;22.75;;
53409;SDS011;66590;50.734;4.246;2023-04-24T01:32:15;30.60;;;21.08;;
53409;SDS011;66590;50.734;4.246;2023-04-24T01:34:43;34.25;;;22.73;;
53409;SDS011;66590;50.734;4.246;2023-04-24T01:37:10;35.08;;;23.52;;
53409;SDS011;66590;50.734;4.246;2023-04-24T01:39:39;37.28;;;23.83;;
53409;SDS011;66590;50.734;4.246;2023-04-24T01:42:06;38.42;;;22.65;;
53409;SDS011;66590;50.734;4.246;2023-04-24T01:44:33;36.85;;;24.00;;
53409;SDS011;66590;50.734;4.246;2023-04-24T01:47:00;33.80;;;24.40;;
53409;SDS011;66590;50.734;4.246;2023-04-24T01:49:27;35.58;;;23.90;;
53409;SDS011;66590;50.734;4.246;2023-04-24T01:51:54;33.75;;;21.00;;
53409;SDS011;66590;50.734;4.246;2023-04-24T01:54:21;30.35;;;21.80;;
53409;SDS011;66590;50.734;4.246;2023-04-24T01:56:50;38.78;;;24.65;;
53409;SDS011;66590;50.734;4.246;2023-04-24T01:59:17;38.90;;;23.58;;
53409;SDS011;66590;50.734;4.246;2023-04-24T02:01:45;39.70;;;25.27;;
53409;SDS011;66590;50.734;4.246;2023-04-24T02:04:12;40.97;;;25.75;;
53409;SDS011;66590;50.734;4.246;2023-04-24T02:06:39;37.30;;;24.45;;
53409;SDS011;66590;50.734;4.246;2023-04-24T02:09:06;34.30;;;24.65;;
53409;SDS011;66590;50.734;4.246;2023-04-24T02:11:33;37.83;;;23.73;;
53409;SDS011;66590;50.734;4.246;2023-04-24T02:14:01;37.85;;;25.02;;
53409;SDS011;66590;50.734;4.246;2023-04-24T02:16:28;37.13;;;25.20;;
53409;SDS011;66590;50.734;4.246;2023-04-24T02:18:55;34.97;;;23.48;;
53409;SDS011;66590;50.734;4.246;2023-04-24T02:21:23;34.00;;;22.05;;
53409;SDS011;66590;50.734;4.246;2023-04-24T02:23:50;37.80;;;22.17;;
53409;SDS011;66590;50.734;4.246;2023-04-24T02:26:17;34.78;;;22.55;;
53409;SDS011;66590;50.734;4.246;2023-04-24T02:28:44;27.92;;;16.67;;
53409;SDS011;66590;50.734;4.246;2023-04-24T02:31:12;40.88;;;22.75;;
53409;SDS011;66590;50.734;4.246;2023-04-24T02:33:39;34.35;;;21.77;;
53409;SDS011;66590;50.734;4.246;2023-04-24T02:36:06;31.50;;;17.35;;
53409;SDS011;66590;50.734;4.246;2023-04-24T02:38:33;32.95;;;19.58;;
53409;SDS011;66590;50.734;4.246;2023-04-24T02:41:00;29.70;;;19.65;;
53409;SDS011;66590;50.734;4.246;2023-04-24T02:43:27;35.58;;;20.65;;
53409;SDS011;66590;50.734;4.246;2023-04-24T02:45:55;29.38;;;17.83;;
53409;SDS011;66590;50.734;4.246;2023-04-24T02:48:23;29.90;;;19.15;;
53409;SDS011;66590;50.734;4.246;2023-04-24T02:50:50;28.77;;;18.20;;
53409;SDS011;66590;50.734;4.246;2023-04-24T02:53:17;29.90;;;17.98;;
53409;SDS011;66590;50.734;4.246;2023-04-24T02:55:44;26.40;;;16.92;;
53409;SDS011;66590;50.734;4.246;2023-04-24T02:58:11;29.48;;;17.77;;
53409;SDS011;66590;50.734;4.246;2023-04-24T03:00:38;31.92;;;18.02;;
53409;SDS011;66590;50.734;4.246;2023-04-24T03:03:05;23.20;;;14.48;;
53409;SDS011;66590;50.734;4.246;2023-04-24T03:05:34;31.52;;;19.67;;
53409;SDS011;66590;50.734;4.246;2023-04-24T03:08:01;30.88;;;18.95;;
53409;SDS011;66590;50.734;4.246;2023-04-24T03:10:28;27.13;;;18.05;;
53409;SDS011;66590;50.734;4.246;2023-04-24T03:12:55;30.98;;;19.08;;
53409;SDS011;66590;50.734;4.246;2023-04-24T03:15:21;34.30;;;22.08;;
53409;SDS011;66590;50.734;4.246;2023-04-24T03:17:48;29.55;;;17.75;;
53409;SDS011;66590;50.734;4.246;2023-04-24T03:20:16;31.08;;;20.17;;
53409;SDS011;66590;50.734;4.246;2023-04-24T03:22:44;34.03;;;21.58;;
53409;SDS011;66590;50.734;4.246;2023-04-24T03:25:11;34.63;;;20.98;;
53409;SDS011;66590;50.734;4.246;2023-04-24T03:27:38;30.80;;;19.92;;
53409;SDS011;66590;50.734;4.246;2023-04-24T03:30:06;31.80;;;21.35;;
53409;SDS011;66590;50.734;4.246;2023-04-24T03:32:33;31.15;;;20.67;;
53409;SDS011;66590;50.734;4.246;2023-04-24T03:35:00;27.02;;;19.00;;
53409;SDS011;66590;50.734;4.246;2023-04-24T03:37:27;22.55;;;15.18;;
53409;SDS011;66590;50.734;4.246;2023-04-24T03:39:56;28.58;;;18.02;;
53409;SDS011;66590;50.734;4.246;2023-04-24T03:42:23;23.30;;;16.35;;
53409;SDS011;66590;50.734;4.246;2023-04-24T03:44:50;28.67;;;17.23;;
53409;SDS011;66590;50.734;4.246;2023-04-24T03:47:17;27.40;;;18.73;;
53409;SDS011;66590;50.734;4.246;2023-04-24T03:49:44;29.08;;;18.33;;
53409;SDS011;66590;50.734;4.246;2023-04-24T03:52:11;35.90;;;20.63;;
53409;SDS011;66590;50.734;4.246;2023-04-24T03:54:38;30.08;;;19.88;;
53409;SDS011;66590;50.734;4.246;2023-04-24T03:57:07;28.60;;;17.20;;
53409;SDS011;66590;50.734;4.246;2023-04-24T03:59:34;21.48;;;15.68;;
53409;SDS011;66590;50.734;4.246;2023-04-24T04:02:01;16.60;;;12.93;;
53409;SDS011;66590;50.734;4.246;2023-04-24T04:04:28;17.00;;;10.90;;
53409;SDS011;66590;50.734;4.246;2023-04-24T04:06:55;19.70;;;14.90;;
53409;SDS011;66590;50.734;4.246;2023-04-24T04:09:22;19.60;;;14.30;;
53409;SDS011;66590;50.734;4.246;2023-04-24T04:11:49;18.80;;;13.77;;
53409;SDS011;66590;50.734;4.246;2023-04-24T04:14:17;15.90;;;13.35;;
53409;SDS011;66590;50.734;4.246;2023-04-24T04:16:44;19.63;;;12.43;;
53409;SDS011;66590;50.734;4.246;2023-04-24T04:19:12;15.27;;;11.55;;
53409;SDS011;66590;50.734;4.246;2023-04-24T04:21:38;16.95;;;12.07;;
53409;SDS011;66590;50.734;4.246;2023-04-24T04:24:06;13.95;;;11.20;;
53409;SDS011;66590;50.734;4.246;2023-04-24T04:26:33;13.60;;;10.48;;
53409;SDS011;66590;50.734;4.246;2023-04-24T04:29:00;14.95;;;10.20;;
53409;SDS011;66590;50.734;4.246;2023-04-24T04:31:28;15.55;;;10.57;;
53409;SDS011;66590;50.734;4.246;2023-04-24T04:33:55;11.43;;;10.23;;
53409;SDS011;66590;50.734;4.246;2023-04-24T04:36:22;12.52;;;9.93;;
53409;SDS011;66590;50.734;4.246;2023-04-24T04:38:49;13.20;;;10.90;;
53409;SDS011;66590;50.734;4.246;2023-04-24T04:41:16;17.02;;;9.40;;
53409;SDS011;66590;50.734;4.246;2023-04-24T04:43:43;15.77;;;11.52;;
53409;SDS011;66590;50.734;4.246;2023-04-24T04:46:10;15.57;;;12.05;;
53409;SDS011;66590;50.734;4.246;2023-04-24T04:48:39;18.10;;;12.25;;
53409;SDS011;66590;50.734;4.246;2023-04-24T04:51:06;17.60;;;12.43;;
53409;SDS011;66590;50.734;4.246;2023-04-24T04:53:33;14.95;;;12.95;;
53409;SDS011;66590;50.734;4.246;2023-04-24T04:56:00;20.38;;;12.85;;
53409;SDS011;66590;50.734;4.246;2023-04-24T04:58:27;19.42;;;13.50;;
53409;SDS011;66590;50.734;4.246;2023-04-24T05:00:54;25.67;;;15.07;;
53409;SDS011;66590;50.734;4.246;2023-04-24T05:03:21;18.33;;;13.25;;
53409;SDS011;66590;50.734;4.246;2023-04-24T05:05:50;20.65;;;12.98;;
53409;SDS011;66590;50.734;4.246;2023-04-24T05:08:17;22.23;;;14.80;;
53409;SDS011;66590;50.734;4.246;2023-04-24T05:10:53;21.13;;;12.15;;
53409;SDS011;66590;50.734;4.246;2023-04-24T05:13:20;25.92;;;14.35;;
53409;SDS011;66590;50.734;4.246;2023-04-24T05:16:04;26.73;;;16.98;;
53409;SDS011;66590;50.734;4.246;2023-04-24T05:18:31;25.48;;;15.52;;
53409;SDS011;66590;50.734;4.246;2023-04-24T05:20:59;21.45;;;15.18;;
53409;SDS011;66590;50.734;4.246;2023-04-24T05:23:26;26.23;;;16.33;;
53409;SDS011;66590;50.734;4.246;2023-04-24T05:25:53;27.65;;;17.73;;
53409;SDS011;66590;50.734;4.246;2023-04-24T05:28:21;23.38;;;16.90;;
53409;SDS011;66590;50.734;4.246;2023-04-24T05:30:48;25.90;;;17.08;;
53409;SDS011;66590;50.734;4.246;2023-04-24T05:33:15;24.83;;;15.43;;
53409;SDS011;66590;50.734;4.246;2023-04-24T05:35:42;23.10;;;16.38;;
53409;SDS011;66590;50.734;4.246;2023-04-24T05:38:10;21.30;;;12.55;;
53409;SDS011;66590;50.734;4.246;2023-04-24T05:40:38;22.02;;;14.77;;
53409;SDS011;66590;50.734;4.246;2023-04-24T05:43:05;22.50;;;15.45;;
53409;SDS011;66590;50.734;4.246;2023-04-24T05:45:32;19.42;;;13.77;;
53409;SDS011;66590;50.734;4.246;2023-04-24T05:47:59;21.75;;;15.00;;
53409;SDS011;66590;50.734;4.246;2023-04-24T05:50:26;25.05;;;14.65;;
53409;SDS011;66590;50.734;4.246;2023-04-24T05:52:53;21.45;;;14.10;;
53409;SDS011;66590;50.734;4.246;2023-04-24T05:55:22;23.48;;;14.82;;
53409;SDS011;66590;50.734;4.246;2023-04-24T05:57:49;24.30;;;15.73;;
53409;SDS011;66590;50.734;4.246;2023-04-24T06:00:16;26.35;;;16.77;;
53409;SDS011;66590;50.734;4.246;2023-04-24T06:02:43;24.25;;;14.98;;
53409;SDS011;66590;50.734;4.246;2023-04-24T06:05:10;20.42;;;12.65;;
53409;SDS011;66590;50.734;4.246;2023-04-24T06:07:37;21.08;;;13.07;;
53409;SDS011;66590;50.734;4.246;2023-04-24T06:10:05;44.38;;;25.13;;
53409;SDS011;66590;50.734;4.246;2023-04-24T06:12:34;24.55;;;16.25;;
53409;SDS011;66590;50.734;4.246;2023-04-24T06:15:01;26.15;;;15.77;;
53409;SDS011;66590;50.734;4.246;2023-04-24T06:17:28;38.65;;;22.85;;
53409;SDS011;66590;50.734;4.246;2023-04-24T06:19:55;30.20;;;15.05;;
53409;SDS011;66590;50.734;4.246;2023-04-24T06:22:22;33.97;;;21.80;;
53409;SDS011;66590;50.734;4.246;2023-04-24T06:24:49;30.55;;;18.95;;
53409;SDS011;66590;50.734;4.246;2023-04-24T06:27:16;28.60;;;16.73;;
53409;SDS011;66590;50.734;4.246;2023-04-24T06:29:44;21.42;;;15.13;;
53409;SDS011;66590;50.734;4.246;2023-04-24T06:32:11;32.47;;;19.85;;
53409;SDS011;66590;50.734;4.246;2023-04-24T06:34:38;35.45;;;21.48;;
53409;SDS011;66590;50.734;4.246;2023-04-24T06:37:05;33.78;;;19.30;;
53409;SDS011;66590;50.734;4.246;2023-04-24T06:39:33;36.38;;;23.08;;
53409;SDS011;66590;50.734;4.246;2023-04-24T06:42:00;36.08;;;22.25;;
53409;SDS011;66590;50.734;4.246;2023-04-24T06:44:27;37.40;;;20.98;;
53409;SDS011;66590;50.734;4.246;2023-04-24T06:46:55;34.38;;;21.27;;
53409;SDS011;66590;50.734;4.246;2023-04-24T06:49:22;29.90;;;18.77;;
53409;SDS011;66590;50.734;4.246;2023-04-24T06:51:49;30.60;;;21.25;;
53409;SDS011;66590;50.734;4.246;2023-04-24T06:54:16;33.08;;;20.90;;
53409;SDS011;66590;50.734;4.246;2023-04-24T06:56:44;31.30;;;20.73;;
53409;SDS011;66590;50.734;4.246;2023-04-24T06:59:11;32.95;;;21.05;;
53409;SDS011;66590;50.734;4.246;2023-04-24T07:01:38;32.30;;;20.27;;
53409;SDS011;66590;50.734;4.246;2023-04-24T07:04:07;37.40;;;21.40;;
53409;SDS011;66590;50.734;4.246;2023-04-24T07:06:34;30.65;;;18.95;;
53409;SDS011;66590;50.734;4.246;2023-04-24T07:09:02;31.75;;;19.55;;
53409;SDS011;66590;50.734;4.246;2023-04-24T07:11:29;28.77;;;18.80;;
53409;SDS011;66590;50.734;4.246;2023-04-24T07:13:56;27.00;;;17.83;;
53409;SDS011;66590;50.734;4.246;2023-04-24T07:16:25;27.08;;;18.08;;
53409;SDS011;66590;50.734;4.246;2023-04-24T07:18:52;32.92;;;20.88;;
53409;SDS011;66590;50.734;4.246;2023-04-24T07:21:21;33.67;;;19.77;;
53409;SDS011;66590;50.734;4.246;2023-04-24T07:23:48;26.08;;;17.10;;
53409;SDS011;66590;50.734;4.246;2023-04-24T07:26:15;30.40;;;19.67;;
53409;SDS011;66590;50.734;4.246;2023-04-24T07:28:42;30.48;;;19.50;;
53409;SDS011;66590;50.734;4.246;2023-04-24T07:31:10;31.00;;;19.55;;
53409;SDS011;66590;50.734;4.246;2023-04-24T07:33:38;32.22;;;19.80;;
53409;SDS011;66590;50.734;4.246;2023-04-24T07:36:05;26.25;;;17.55;;
53409;SDS011;66590;50.734;4.246;2023-04-24T07:38:34;24.35;;;16.33;;
53409;SDS011;66590;50.734;4.246;2023-04-24T07:41:01;28.40;;;17.08;;
53409;SDS011;66590;50.734;4.246;2023-04-24T07:43:27;29.85;;;19.20;;
53409;SDS011;66590;50.734;4.246;2023-04-24T07:45:55;28.15;;;16.83;;
53409;SDS011;66590;50.734;4.246;2023-04-24T07:48:22;27.98;;;15.95;;
53409;SDS011;66590;50.734;4.246;2023-04-24T07:50:49;25.65;;;15.77;;
53409;SDS011;66590;50.734;4.246;2023-04-24T07:53:16;25.75;;;14.88;;
53409;SDS011;66590;50.734;4.246;2023-04-24T07:55:44;25.02;;;16.92;;
53409;SDS011;66590;50.734;4.246;2023-04-24T07:58:11;25.33;;;16.42;;
53409;SDS011;66590;50.734;4.246;2023-04-24T08:00:38;33.05;;;19.27;;
53409;SDS011;66590;50.734;4.246;2023-04-24T08:03:06;27.45;;;15.68;;
53409;SDS011;66590;50.734;4.246;2023-04-24T08:05:33;28.63;;;17.38;;
53409;SDS011;66590;50.734;4.246;2023-04-24T08:08:02;30.27;;;18.83;;
53409;SDS011;66590;50.734;4.246;2023-04-24T08:10:29;29.83;;;17.27;;
53409;SDS011;66590;50.734;4.246;2023-04-24T08:12:57;27.35;;;18.40;;
53409;SDS011;66590;50.734;4.246;2023-04-24T08:15:24;30.02;;;17.23;;
53409;SDS011;66590;50.734;4.246;2023-04-24T08:17:53;26.58;;;18.48;;
53409;SDS011;66590;50.734;4.246;2023-04-24T08:20:23;17.48;;;9.88;;
53409;SDS011;66590;50.734;4.246;2023-04-24T08:22:51;23.40;;;15.35;;
53409;SDS011;66590;50.734;4.246;2023-04-24T08:25:18;19.73;;;12.48;;
53409;SDS011;66590;50.734;4.246;2023-04-24T08:27:45;37.95;;;14.75;;
53409;SDS011;66590;50.734;4.246;2023-04-24T08:30:13;21.27;;;14.68;;
53409;SDS011;66590;50.734;4.246;2023-04-24T08:32:40;19.77;;;12.75;;
53409;SDS011;66590;50.734;4.246;2023-04-24T08:35:08;18.25;;;13.32;;
53409;SDS011;66590;50.734;4.246;2023-04-24T08:37:35;22.70;;;14.10;;
53409;SDS011;66590;50.734;4.246;2023-04-24T08:40:02;18.48;;;12.02;;
53409;SDS011;66590;50.734;4.246;2023-04-24T08:42:35;21.05;;;12.57;;
53409;SDS011;66590;50.734;4.246;2023-04-24T08:45:04;15.40;;;10.98;;
53409;SDS011;66590;50.734;4.246;2023-04-24T08:47:33;18.80;;;11.15;;
53409;SDS011;66590;50.734;4.246;2023-04-24T08:50:02;20.13;;;11.38;;
53409;SDS011;66590;50.734;4.246;2023-04-24T08:52:29;13.82;;;8.10;;
53409;SDS011;66590;50.734;4.246;2023-04-24T08:54:56;12.65;;;8.10;;
53409;SDS011;66590;50.734;4.246;2023-04-24T08:57:25;12.80;;;6.97;;
53409;SDS011;66590;50.734;4.246;2023-04-24T08:59:53;10.85;;;5.82;;
53409;SDS011;66590;50.734;4.246;2023-04-24T09:02:22;16.38;;;8.25;;
53409;SDS011;66590;50.734;4.246;2023-04-24T09:04:51;13.35;;;8.00;;
53409;SDS011;66590;50.734;4.246;2023-04-24T09:07:19;15.60;;;7.43;;
53409;SDS011;66590;50.734;4.246;2023-04-24T09:09:48;15.00;;;7.18;;
53409;SDS011;66590;50.734;4.246;2023-04-24T09:12:17;13.18;;;6.53;;
53409;SDS011;66590;50.734;4.246;2023-04-24T09:14:45;19.25;;;9.05;;
53409;SDS011;66590;50.734;4.246;2023-04-24T09:17:12;16.33;;;8.18;;
53409;SDS011;66590;50.734;4.246;2023-04-24T09:19:39;13.02;;;8.02;;
53409;SDS011;66590;50.734;4.246;2023-04-24T09:22:09;9.18;;;6.25;;
53409;SDS011;66590;50.734;4.246;2023-04-24T09:24:36;15.07;;;7.95;;
53409;SDS011;66590;50.734;4.246;2023-04-24T09:27:04;13.48;;;8.50;;
53409;SDS011;66590;50.734;4.246;2023-04-24T09:29:35;16.55;;;8.23;;
53409;SDS011;66590;50.734;4.246;2023-04-24T09:34:44;10.57;;;6.75;;
53409;SDS011;66590;50.734;4.246;2023-04-24T09:37:20;16.17;;;7.05;;
53409;SDS011;66590;50.734;4.246;2023-04-24T09:40:06;10.70;;;5.22;;
53409;SDS011;66590;50.734;4.246;2023-04-24T09:42:38;14.88;;;5.63;;
53409;SDS011;66590;50.734;4.246;2023-04-24T09:45:08;8.00;;;5.10;;
53409;SDS011;66590;50.734;4.246;2023-04-24T09:47:37;8.38;;;3.88;;
53409;SDS011;66590;50.734;4.246;2023-04-24T09:50:14;14.82;;;6.78;;
53409;SDS011;66590;50.734;4.246;2023-04-24T09:52:47;11.80;;;5.85;;
53409;SDS011;66590;50.734;4.246;2023-04-24T09:55:23;6.72;;;4.93;;
53409;SDS011;66590;50.734;4.246;2023-04-24T09:57:50;11.57;;;5.10;;
53409;SDS011;66590;50.734;4.246;2023-04-24T10:00:23;8.93;;;5.05;;
53409;SDS011;66590;50.734;4.246;2023-04-24T10:02:55;11.43;;;6.30;;
53409;SDS011;66590;50.734;4.246;2023-04-24T10:05:24;10.95;;;6.50;;
53409;SDS011;66590;50.734;4.246;2023-04-24T10:07:57;9.57;;;6.13;;
53409;SDS011;66590;50.734;4.246;2023-04-24T10:10:26;6.25;;;4.53;;
53409;SDS011;66590;50.734;4.246;2023-04-24T10:12:54;11.02;;;6.85;;
53409;SDS011;66590;50.734;4.246;2023-04-24T10:15:22;11.85;;;6.55;;
53409;SDS011;66590;50.734;4.246;2023-04-24T10:17:49;21.70;;;7.18;;
53409;SDS011;66590;50.734;4.246;2023-04-24T10:20:17;12.43;;;7.35;;
53409;SDS011;66590;50.734;4.246;2023-04-24T10:22:48;10.40;;;6.60;;
53409;SDS011;66590;50.734;4.246;2023-04-24T10:25:17;15.30;;;7.65;;
53409;SDS011;66590;50.734;4.246;2023-04-24T10:27:46;12.25;;;8.10;;
53409;SDS011;66590;50.734;4.246;2023-04-24T10:30:13;8.95;;;6.68;;
53409;SDS011;66590;50.734;4.246;2023-04-24T10:32:41;10.02;;;5.30;;
53409;SDS011;66590;50.734;4.246;2023-04-24T10:35:09;8.65;;;6.07;;
53409;SDS011;66590;50.734;4.246;2023-04-24T10:37:38;12.63;;;7.82;;
53409;SDS011;66590;50.734;4.246;2023-04-24T10:40:09;11.32;;;7.25;;
53409;SDS011;66590;50.734;4.246;2023-04-24T10:42:40;12.70;;;8.27;;
53409;SDS011;66590;50.734;4.246;2023-04-24T10:45:15;13.55;;;8.77;;
53409;SDS011;66590;50.734;4.246;2023-04-24T10:50:16;18.42;;;11.30;;
53409;SDS011;66590;50.734;4.246;2023-04-24T10:52:44;18.08;;;12.15;;
53409;SDS011;66590;50.734;4.246;2023-04-24T10:55:12;15.43;;;11.05;;
53409;SDS011;66590;50.734;4.246;2023-04-24T10:57:40;13.02;;;9.63;;
53409;SDS011;66590;50.734;4.246;2023-04-24T11:00:28;18.42;;;12.55;;
53409;SDS011;66590;50.734;4.246;2023-04-24T11:02:56;19.05;;;12.63;;
53409;SDS011;66590;50.734;4.246;2023-04-24T11:05:49;11.23;;;8.02;;
53409;SDS011;66590;50.734;4.246;2023-04-24T11:08:22;13.93;;;9.55;;
53409;SDS011;66590;50.734;4.246;2023-04-24T11:10:54;17.05;;;10.52;;
53409;SDS011;66590;50.734;4.246;2023-04-24T11:13:25;16.60;;;11.25;;
53409;SDS011;66590;50.734;4.246;2023-04-24T11:18:39;12.50;;;10.60;;
53409;SDS011;66590;50.734;4.246;2023-04-24T11:21:11;16.30;;;11.75;;
53409;SDS011;66590;50.734;4.246;2023-04-24T11:23:38;16.70;;;12.48;;
53409;SDS011;66590;50.734;4.246;2023-04-24T11:26:11;17.45;;;13.00;;
53409;SDS011;66590;50.734;4.246;2023-04-24T11:28:50;18.95;;;12.07;;
53409;SDS011;66590;50.734;4.246;2023-04-24T11:31:36;20.40;;;14.07;;
53409;SDS011;66590;50.734;4.246;2023-04-24T11:34:08;20.40;;;14.02;;
53409;SDS011;66590;50.734;4.246;2023-04-24T11:36:36;18.15;;;14.05;;
53409;SDS011;66590;50.734;4.246;2023-04-24T11:39:03;18.90;;;13.88;;
53409;SDS011;66590;50.734;4.246;2023-04-24T11:41:30;18.33;;;12.80;;
53409;SDS011;66590;50.734;4.246;2023-04-24T11:43:59;17.75;;;12.02;;
53409;SDS011;66590;50.734;4.246;2023-04-24T11:46:27;17.92;;;12.20;;
53409;SDS011;66590;50.734;4.246;2023-04-24T11:48:55;21.42;;;14.15;;
53409;SDS011;66590;50.734;4.246;2023-04-24T11:51:22;18.45;;;12.77;;
53409;SDS011;66590;50.734;4.246;2023-04-24T11:53:52;13.13;;;11.70;;
53409;SDS011;66590;50.734;4.246;2023-04-24T11:56:29;14.77;;;11.48;;
53409;SDS011;66590;50.734;4.246;2023-04-24T11:58:56;15.90;;;11.45;;
53409;SDS011;66590;50.734;4.246;2023-04-24T12:01:24;15.15;;;13.00;;
53409;SDS011;66590;50.734;4.246;2023-04-24T12:03:59;13.75;;;10.90;;
53409;SDS011;66590;50.734;4.246;2023-04-24T12:06:26;14.80;;;12.38;;
53409;SDS011;66590;50.734;4.246;2023-04-24T12:08:53;14.65;;;11.52;;
53409;SDS011;66590;50.734;4.246;2023-04-24T12:11:29;15.88;;;12.13;;
53409;SDS011;66590;50.734;4.246;2023-04-24T12:13:56;19.42;;;11.23;;
53409;SDS011;66590;50.734;4.246;2023-04-24T12:16:25;12.77;;;10.52;;
53409;SDS011;66590;50.734;4.246;2023-04-24T12:18:52;13.93;;;10.85;;
53409;SDS011;66590;50.734;4.246;2023-04-24T12:21:20;18.35;;;10.85;;
53409;SDS011;66590;50.734;4.246;2023-04-24T12:23:48;16.13;;;10.93;;
53409;SDS011;66590;50.734;4.246;2023-04-24T12:26:16;10.88;;;8.10;;
53409;SDS011;66590;50.734;4.246;2023-04-24T12:28:46;12.05;;;10.18;;
53409;SDS011;66590;50.734;4.246;2023-04-24T12:31:14;13.68;;;10.00;;
53409;SDS011;66590;50.734;4.246;2023-04-24T12:33:43;16.10;;;10.98;;
53409;SDS011;66590;50.734;4.246;2023-04-24T12:36:11;17.00;;;11.48;;
53409;SDS011;66590;50.734;4.246;2023-04-24T12:38:38;13.95;;;10.93;;
53409;SDS011;66590;50.734;4.246;2023-04-24T12:41:06;17.23;;;11.00;;
53409;SDS011;66590;50.734;4.246;2023-04-24T12:43:34;13.02;;;10.88;;
53409;SDS011;66590;50.734;4.246;2023-04-24T12:46:01;13.15;;;10.68;;
53409;SDS011;66590;50.734;4.246;2023-04-24T12:48:28;12.90;;;9.75;;
53409;SDS011;66590;50.734;4.246;2023-04-24T12:50:59;13.85;;;9.68;;
53409;SDS011;66590;50.734;4.246;2023-04-24T12:53:27;10.80;;;9.70;;
53409;SDS011;66590;50.734;4.246;2023-04-24T12:55:54;10.57;;;7.88;;
53409;SDS011;66590;50.734;4.246;2023-04-24T12:58:22;11.63;;;9.88;;
53409;SDS011;66590;50.734;4.246;2023-04-24T13:00:49;12.05;;;9.80;;
53409;SDS011;66590;50.734;4.246;2023-04-24T13:03:16;15.20;;;10.40;;
53409;SDS011;66590;50.734;4.246;2023-04-24T13:05:44;14.00;;;11.32;;
53409;SDS011;66590;50.734;4.246;2023-04-24T13:08:12;10.77;;;9.32;;
53409;SDS011;66590;50.734;4.246;2023-04-24T13:10:39;11.93;;;9.18;;
53409;SDS011;66590;50.734;4.246;2023-04-24T13:13:07;18.30;;;11.48;;
53409;SDS011;66590;50.734;4.246;2023-04-24T13:15:34;17.33;;;11.30;;
53409;SDS011;66590;50.734;4.246;2023-04-24T13:18:01;14.52;;;10.35;;
53409;SDS011;66590;50.734;4.246;2023-04-24T13:20:28;12.10;;;9.35;;
53409;SDS011;66590;50.734;4.246;2023-04-24T13:22:56;12.15;;;9.73;;
53409;SDS011;66590;50.734;4.246;2023-04-24T13:25:24;9.65;;;8.65;;
53409;SDS011;66590;50.734;4.246;2023-04-24T13:27:51;12.85;;;9.73;;
53409;SDS011;66590;50.734;4.246;2023-04-24T13:30:18;11.45;;;8.77;;
53409;SDS011;66590;50.734;4.246;2023-04-24T13:32:45;12.05;;;9.13;;
53409;SDS011;66590;50.734;4.246;2023-04-24T13:35:12;12.75;;;9.60;;
53409;SDS011;66590;50.734;4.246;2023-04-24T13:37:39;12.95;;;9.55;;
53409;SDS011;66590;50.734;4.246;2023-04-24T13:40:07;10.30;;;8.20;;
53409;SDS011;66590;50.734;4.246;2023-04-24T13:42:36;9.40;;;8.50;;
53409;SDS011;66590;50.734;4.246;2023-04-24T13:45:04;13.13;;;9.18;;
53409;SDS011;66590;50.734;4.246;2023-04-24T13:47:49;9.90;;;6.78;;
53409;SDS011;66590;50.734;4.246;2023-04-24T13:50:17;11.25;;;6.93;;
53409;SDS011;66590;50.734;4.246;2023-04-24T13:52:44;10.48;;;7.07;;
53409;SDS011;66590;50.734;4.246;2023-04-24T13:55:12;8.63;;;6.38;;
53409;SDS011;66590;50.734;4.246;2023-04-24T13:57:40;8.20;;;7.10;;
53409;SDS011;66590;50.734;4.246;2023-04-24T14:00:08;9.15;;;7.07;;
53409;SDS011;66590;50.734;4.246;2023-04-24T14:02:35;9.07;;;6.05;;
53409;SDS011;66590;50.734;4.246;2023-04-24T14:05:03;8.15;;;5.57;;
53409;SDS011;66590;50.734;4.246;2023-04-24T14:07:31;10.27;;;6.13;;
53409;SDS011;66590;50.734;4.246;2023-04-24T14:09:58;9.35;;;6.15;;
53409;SDS011;66590;50.734;4.246;2023-04-24T14:12:25;9.20;;;6.45;;
53409;SDS011;66590;50.734;4.246;2023-04-24T14:14:53;9.25;;;5.10;;
53409;SDS011;66590;50.734;4.246;2023-04-24T14:17:20;9.95;;;6.30;;
53409;SDS011;66590;50.734;4.246;2023-04-24T14:19:47;7.38;;;4.88;;
53409;SDS011;66590;50.734;4.246;2023-04-24T14:22:14;7.50;;;4.90;;
53409;SDS011;66590;50.734;4.246;2023-04-24T14:24:41;8.50;;;5.05;;
53409;SDS011;66590;50.734;4.246;2023-04-24T14:27:08;8.15;;;5.25;;
53409;SDS011;66590;50.734;4.246;2023-04-24T14:29:35;8.95;;;4.82;;
53409;SDS011;66590;50.734;4.246;2023-04-24T14:32:04;7.20;;;4.80;;
53409;SDS011;66590;50.734;4.246;2023-04-24T14:34:31;8.02;;;4.60;;
53409;SDS011;66590;50.734;4.246;2023-04-24T14:36:58;8.10;;;5.55;;
53409;SDS011;66590;50.734;4.246;2023-04-24T14:39:25;7.43;;;5.20;;